Time,TemperatureF,DewpointF,PressureIn,WindDirection,WindDirectionDegrees,WindSpeedMPH,WindSpeedGustMPH,Humidity,HourlyPrecipIn,Conditions,Clouds,dailyrainin,SoftwareType,DateUTC
2013-10-31 00:00:00,46.5,41.9,30.05,West,276,0.0,0.0,84,0.00,,,0.00,Wunderground v.1.15,2013-10-31 07:00:00,
2013-10-31 00:05:00,46.5,41.9,30.05,West,276,0.0,0.0,84,0.00,,,0.00,Wunderground v.1.15,2013-10-31 07:05:00,
2013-10-31 00:15:00,46.4,41.8,30.05,SSW,213,0.0,0.0,84,0.00,,,0.00,Wunderground v.1.15,2013-10-31 07:15:00,
2013-10-31 00:20:00,46.1,41.5,30.05,SSW,213,0.0,0.0,84,0.00,,,0.00,Wunderground v.1.15,2013-10-31 07:20:00,
2013-10-31 00:30:00,46.1,41.8,30.05,SSW,213,0.0,0.0,85,0.00,,,0.00,Wunderground v.1.15,2013-10-31 07:30:00,
2013-10-31 00:35:00,46.1,41.8,30.05,SSW,213,0.0,0.0,85,0.00,,,0.00,Wunderground v.1.15,2013-10-31 07:35:00,
2013-10-31 00:40:00,46.2,41.9,30.05,East,98,0.0,0.0,85,0.00,,,0.00,Wunderground v.1.15,2013-10-31 07:40:00,
2013-10-31 00:45:00,46.7,42.1,30.05,NE,39,0.0,0.0,84,0.00,,,0.00,Wunderground v.1.15,2013-10-31 07:45:00,
2013-10-31 00:50:00,47.0,42.4,30.05,NE,39,0.0,0.0,84,0.00,,,0.00,Wunderground v.1.15,2013-10-31 07:50:00,
2013-10-31 01:00:00,47.8,42.6,30.06,NE,39,0.0,0.0,82,0.00,,,0.00,Wunderground v.1.15,2013-10-31 08:00:00,
2013-10-31 01:05:00,47.8,42.6,30.06,NE,39,0.0,0.0,82,0.00,,,0.00,Wunderground v.1.15,2013-10-31 08:05:00,
2013-10-31 01:10:00,47.8,42.6,30.06,NE,39,0.0,0.0,82,0.00,,,0.00,Wunderground v.1.15,2013-10-31 08:10:00,
2013-10-31 01:15:00,47.9,42.7,30.06,NE,39,0.0,0.0,82,0.00,,,0.00,Wunderground v.1.15,2013-10-31 08:15:00,
2013-10-31 01:25:00,47.8,42.6,30.06,NE,39,0.0,0.0,82,0.00,,,0.00,Wunderground v.1.15,2013-10-31 08:25:00,
2013-10-31 01:30:00,47.8,42.6,30.06,ENE,68,0.0,0.0,82,0.00,,,0.00,Wunderground v.1.15,2013-10-31 08:30:00,
2013-10-31 01:36:00,48.2,43.0,30.06,East,96,0.0,0.0,82,0.00,,,0.00,Wunderground v.1.15,2013-10-31 08:36:00,
2013-10-31 01:45:00,48.2,43.0,30.06,East,96,0.0,0.0,82,0.00,,,0.00,Wunderground v.1.15,2013-10-31 08:45:00,
2013-10-31 01:55:00,48.3,43.4,30.06,East,96,0.0,0.0,83,0.00,,,0.00,Wunderground v.1.15,2013-10-31 08:55:00,
2013-10-31 02:00:00,48.4,43.5,30.06,East,96,0.0,0.0,83,0.00,,,0.00,Wunderground v.1.15,2013-10-31 09:00:00,
2013-10-31 02:15:00,48.2,43.3,30.06,East,96,0.0,0.0,83,0.00,,,0.00,Wunderground v.1.15,2013-10-31 09:15:00,
2013-10-31 02:20:00,48.8,43.5,30.06,East,82,0.0,0.0,82,0.00,,,0.00,Wunderground v.1.15,2013-10-31 09:20:00,
2013-10-31 02:25:00,50.3,44.0,30.06,NNE,25,0.0,0.0,79,0.00,,,0.00,Wunderground v.1.15,2013-10-31 09:25:00,
2013-10-31 02:30:00,50.9,43.6,30.06,WNW,301,1.0,1.0,76,0.00,,,0.00,Wunderground v.1.15,2013-10-31 09:30:00,
2013-10-31 02:40:00,49.6,43.0,30.06,WSW,251,0.0,1.0,78,0.00,,,0.00,Wunderground v.1.15,2013-10-31 09:40:00,
2013-10-31 02:45:00,48.9,43.3,30.06,ESE,110,0.0,0.0,81,0.00,,,0.00,Wunderground v.1.15,2013-10-31 09:45:00,
2013-10-31 02:50:00,48.7,42.8,30.06,ESE,110,0.0,1.0,80,0.00,,,0.00,Wunderground v.1.15,2013-10-31 09:50:00,
2013-10-31 02:55:00,48.4,42.8,30.06,ESE,110,0.0,0.0,81,0.00,,,0.00,Wunderground v.1.15,2013-10-31 09:55:00,
2013-10-31 03:00:00,48.0,42.8,30.06,WNW,291,0.0,1.0,82,0.00,,,0.00,Wunderground v.1.15,2013-10-31 10:00:00,
2013-10-31 03:05:00,47.7,42.8,30.06,West,276,0.0,1.0,83,0.00,,,0.00,Wunderground v.1.15,2013-10-31 10:05:00,
2013-10-31 03:15:00,47.5,42.6,30.06,WNW,286,0.0,0.0,83,0.00,,,0.00,Wunderground v.1.15,2013-10-31 10:15:00,
2013-10-31 03:20:00,47.7,42.8,30.06,East,94,1.0,1.0,83,0.00,,,0.00,Wunderground v.1.15,2013-10-31 10:20:00,
2013-10-31 03:25:00,47.6,42.7,30.06,East,93,0.0,0.0,83,0.00,,,0.00,Wunderground v.1.15,2013-10-31 10:25:00,
2013-10-31 03:30:00,47.4,42.5,30.06,NNW,340,0.0,0.0,83,0.00,,,0.00,Wunderground v.1.15,2013-10-31 10:30:00,
2013-10-31 03:35:00,47.2,42.6,30.06,NNW,341,0.0,0.0,84,0.00,,,0.00,Wunderground v.1.15,2013-10-31 10:35:00,
2013-10-31 03:45:00,47.1,42.5,30.06,NNW,340,0.0,0.0,84,0.00,,,0.00,Wunderground v.1.15,2013-10-31 10:45:00,
2013-10-31 03:50:00,47.1,42.5,30.06,NNW,341,0.0,0.0,84,0.00,,,0.00,Wunderground v.1.15,2013-10-31 10:50:00,
2013-10-31 03:55:00,47.1,42.8,30.06,NNW,342,0.0,0.0,85,0.00,,,0.00,Wunderground v.1.15,2013-10-31 10:55:00,
2013-10-31 04:00:00,47.2,42.9,30.06,NNW,342,0.0,0.0,85,0.00,,,0.00,Wunderground v.1.15,2013-10-31 11:00:00,
2013-10-31 04:05:00,47.3,43.0,30.06,NNW,342,0.0,0.0,85,0.00,,,0.00,Wunderground v.1.15,2013-10-31 11:05:00,
2013-10-31 04:15:00,47.3,43.0,30.06,NNW,342,0.0,0.0,85,0.00,,,0.00,Wunderground v.1.15,2013-10-31 11:15:00,
2013-10-31 04:20:00,47.2,42.6,30.06,NNW,342,0.0,0.0,84,0.00,,,0.00,Wunderground v.1.15,2013-10-31 11:20:00,
2013-10-31 04:25:00,47.0,42.4,30.06,NNW,342,0.0,0.0,84,0.00,,,0.00,Wunderground v.1.15,2013-10-31 11:25:00,
2013-10-31 04:30:00,46.7,42.1,30.05,NNW,342,0.0,0.0,84,0.00,,,0.00,Wunderground v.1.15,2013-10-31 11:30:00,
2013-10-31 04:35:00,46.5,42.5,30.05,NNW,342,0.0,0.0,86,0.00,,,0.00,Wunderground v.1.15,2013-10-31 11:35:00,
2013-10-31 04:45:00,46.6,42.3,30.06,NNW,342,0.0,0.0,85,0.00,,,0.00,Wunderground v.1.15,2013-10-31 11:45:00,
2013-10-31 04:50:00,46.5,42.5,30.06,NNW,342,0.0,0.0,86,0.00,,,0.00,Wunderground v.1.15,2013-10-31 11:50:00,
2013-10-31 04:55:00,46.4,42.4,30.06,NNW,342,0.0,0.0,86,0.00,,,0.00,Wunderground v.1.15,2013-10-31 11:55:00,
2013-10-31 05:00:00,46.3,42.3,30.06,NNW,342,0.0,0.0,86,0.00,,,0.00,Wunderground v.1.15,2013-10-31 12:00:00,
2013-10-31 05:11:00,45.9,42.2,30.06,NNW,342,0.0,0.0,87,0.00,,,0.00,Wunderground v.1.15,2013-10-31 12:11:00,
2013-10-31 05:40:00,45.5,41.9,30.07,NNW,342,0.0,0.0,87,0.00,,,0.00,Wunderground v.1.15,2013-10-31 12:40:00,
2013-10-31 05:50:00,45.0,41.7,30.07,NNW,342,0.0,0.0,88,0.00,,,0.00,Wunderground v.1.15,2013-10-31 12:50:00,
2013-10-31 06:00:00,45.2,42.2,30.07,NNW,342,0.0,0.0,89,0.00,,,0.00,Wunderground v.1.15,2013-10-31 13:00:00,
2013-10-31 06:05:00,45.4,42.3,30.07,NNW,342,0.0,0.0,89,0.00,,,0.00,Wunderground v.1.15,2013-10-31 13:05:00,
2013-10-31 06:10:00,45.5,42.2,30.07,NNW,341,0.0,0.0,88,0.00,,,0.00,Wunderground v.1.15,2013-10-31 13:10:00,
2013-10-31 06:20:00,45.6,42.3,30.07,NNW,341,0.0,0.0,88,0.00,,,0.00,Wunderground v.1.15,2013-10-31 13:20:00,
2013-10-31 06:30:00,45.6,42.3,30.07,NNW,347,0.0,0.0,88,0.00,,,0.00,Wunderground v.1.15,2013-10-31 13:30:00,
2013-10-31 06:35:00,45.5,41.9,30.08,NNW,347,0.0,0.0,87,0.00,,,0.00,Wunderground v.1.15,2013-10-31 13:35:00,
2013-10-31 06:40:00,45.2,41.9,30.07,NNW,347,0.0,0.0,88,0.00,,,0.00,Wunderground v.1.15,2013-10-31 13:40:00,
2013-10-31 06:46:00,45.1,42.1,30.07,NNW,347,0.0,0.0,89,0.00,,,0.00,Wunderground v.1.15,2013-10-31 13:46:00,
2013-10-31 06:55:00,45.4,42.3,30.07,ENE,72,0.0,0.0,89,0.00,,,0.00,Wunderground v.1.15,2013-10-31 13:55:00,
2013-10-31 07:00:00,45.6,42.3,30.07,ENE,72,0.0,0.0,88,0.00,,,0.00,Wunderground v.1.15,2013-10-31 14:00:00,
2013-10-31 07:05:00,45.8,42.4,30.07,ENE,65,0.0,0.0,88,0.00,,,0.00,Wunderground v.1.15,2013-10-31 14:05:00,
2013-10-31 07:15:00,45.9,42.5,30.07,North,352,0.0,0.0,88,0.00,,,0.00,Wunderground v.1.15,2013-10-31 14:15:00,
2013-10-31 07:20:00,45.9,42.5,30.07,NE,52,0.0,0.0,88,0.00,,,0.00,Wunderground v.1.15,2013-10-31 14:20:00,
2013-10-31 07:25:00,46.0,42.3,30.08,NE,52,0.0,0.0,87,0.00,,,0.00,Wunderground v.1.15,2013-10-31 14:25:00,
2013-10-31 07:30:00,46.1,42.4,30.07,NE,52,0.0,0.0,87,0.00,,,0.00,Wunderground v.1.15,2013-10-31 14:30:00,
2013-10-31 07:35:00,46.0,42.3,30.08,NE,52,0.0,0.0,87,0.00,,,0.00,Wunderground v.1.15,2013-10-31 14:35:00,
2013-10-31 07:45:00,45.7,42.3,30.08,NE,51,0.0,0.0,88,0.00,,,0.00,Wunderground v.1.15,2013-10-31 14:45:00,
2013-10-31 07:50:00,45.8,42.4,30.08,NE,51,0.0,0.0,88,0.00,,,0.00,Wunderground v.1.15,2013-10-31 14:50:00,
2013-10-31 07:55:00,45.7,42.3,30.08,NE,52,0.0,0.0,88,0.00,,,0.00,Wunderground v.1.15,2013-10-31 14:55:00,
2013-10-31 08:00:00,45.6,42.3,30.09,NE,51,0.0,0.0,88,0.00,,,0.00,Wunderground v.1.15,2013-10-31 15:00:00,
2013-10-31 08:05:00,45.5,42.2,30.09,NE,51,0.0,0.0,88,0.00,,,0.00,Wunderground v.1.15,2013-10-31 15:05:00,
2013-10-31 08:15:00,45.8,42.4,30.09,NE,51,0.0,0.0,88,0.00,,,0.00,Wunderground v.1.15,2013-10-31 15:15:00,
2013-10-31 08:20:00,46.3,42.9,30.09,NE,51,0.0,0.0,88,0.00,,,0.00,Wunderground v.1.15,2013-10-31 15:20:00,
2013-10-31 08:25:00,46.7,43.0,30.09,NE,51,0.0,0.0,87,0.00,,,0.00,Wunderground v.1.15,2013-10-31 15:25:00,
2013-10-31 08:30:00,46.9,43.2,30.10,NE,52,0.0,0.0,87,0.00,,,0.00,Wunderground v.1.15,2013-10-31 15:30:00,
2013-10-31 08:40:00,47.4,43.7,30.10,NE,51,0.0,0.0,87,0.00,,,0.00,Wunderground v.1.15,2013-10-31 15:40:00,
2013-10-31 08:45:00,48.0,44.0,30.10,East,96,0.0,0.0,86,0.00,,,0.00,Wunderground v.1.15,2013-10-31 15:45:00,
2013-10-31 08:50:00,49.1,44.5,30.10,East,86,0.0,0.0,84,0.00,,,0.00,Wunderground v.1.15,2013-10-31 15:50:00,
2013-10-31 09:00:00,50.9,44.9,30.10,ESE,115,0.0,0.0,80,0.00,,,0.00,Wunderground v.1.15,2013-10-31 16:00:00,
2013-10-31 09:05:00,51.6,45.3,30.10,East,83,0.0,0.0,79,0.00,,,0.00,Wunderground v.1.15,2013-10-31 16:05:00,
2013-10-31 09:15:00,52.3,45.6,30.11,East,94,0.0,0.0,78,0.00,,,0.00,Wunderground v.1.15,2013-10-31 16:15:00,
2013-10-31 09:20:00,53.0,45.6,30.10,SSW,209,0.0,0.0,76,0.00,,,0.00,Wunderground v.1.15,2013-10-31 16:20:00,
2013-10-31 09:25:00,53.2,45.8,30.10,SSW,209,0.0,0.0,76,0.00,,,0.00,Wunderground v.1.15,2013-10-31 16:25:00,
2013-10-31 09:30:00,54.3,46.9,30.10,SSW,208,0.0,0.0,76,0.00,,,0.00,Wunderground v.1.15,2013-10-31 16:30:00,
2013-10-31 09:35:00,55.5,47.0,30.10,ENE,68,0.0,0.0,73,0.00,,,0.00,Wunderground v.1.15,2013-10-31 16:35:00,
2013-10-31 09:45:00,57.2,47.5,30.10,SE,124,0.0,0.0,70,0.00,,,0.00,Wunderground v.1.15,2013-10-31 16:45:00,
2013-10-31 09:50:00,57.7,47.6,30.10,WSW,251,0.0,0.0,69,0.00,,,0.00,Wunderground v.1.15,2013-10-31 16:50:00,
2013-10-31 09:55:00,57.9,47.0,30.10,West,270,0.0,0.0,67,0.00,,,0.00,Wunderground v.1.15,2013-10-31 16:55:00,
2013-10-31 10:00:00,58.3,47.4,30.10,WSW,251,0.0,0.0,67,0.00,,,0.00,Wunderground v.1.15,2013-10-31 17:00:00,
2013-10-31 10:10:00,59.4,47.6,30.10,WSW,252,1.0,1.0,65,0.00,,,0.00,Wunderground v.1.15,2013-10-31 17:10:00,
2013-10-31 10:20:00,60.2,47.6,30.10,WSW,242,1.0,1.0,63,0.00,,,0.00,Wunderground v.1.15,2013-10-31 17:20:00,
2013-10-31 10:25:00,60.8,47.3,30.10,WSW,237,1.0,2.0,61,0.00,,,0.00,Wunderground v.1.15,2013-10-31 17:25:00,
2013-10-31 10:30:00,61.3,46.8,30.10,SW,236,1.0,1.0,59,0.00,,,0.00,Wunderground v.1.15,2013-10-31 17:30:00,
2013-10-31 10:36:00,62.0,46.6,30.09,WSW,243,1.0,1.0,57,0.00,,,0.00,Wunderground v.1.15,2013-10-31 17:36:00,
2013-10-31 10:45:00,62.6,46.7,30.09,SW,226,1.0,1.0,56,0.00,,,0.00,Wunderground v.1.15,2013-10-31 17:45:00,
2013-10-31 10:55:00,64.1,46.6,30.09,WSW,237,1.0,1.0,53,0.00,,,0.00,Wunderground v.1.15,2013-10-31 17:55:00,
2013-10-31 11:00:00,64.8,46.2,30.09,SW,214,2.0,2.0,51,0.00,,,0.00,Wunderground v.1.15,2013-10-31 18:00:00,
2013-10-31 11:05:00,65.9,46.2,30.09,SSW,201,2.0,2.0,49,0.00,,,0.00,Wunderground v.1.15,2013-10-31 18:05:00,
2013-10-31 11:15:00,66.5,46.2,30.09,South,185,2.0,3.0,48,0.00,,,0.00,Wunderground v.1.15,2013-10-31 18:15:00,
2013-10-31 11:20:00,66.8,46.5,30.09,South,172,2.0,4.0,48,0.00,,,0.00,Wunderground v.1.15,2013-10-31 18:20:00,
2013-10-31 11:25:00,66.9,46.0,30.09,SSW,212,3.0,4.0,47,0.00,,,0.00,Wunderground v.1.15,2013-10-31 18:25:00,
2013-10-31 11:31:00,66.9,46.0,30.09,SW,229,3.0,3.0,47,0.00,,,0.00,Wunderground v.1.15,2013-10-31 18:31:00,
2013-10-31 11:40:00,67.5,46.0,30.09,SSW,207,2.0,5.0,46,0.00,,,0.00,Wunderground v.1.15,2013-10-31 18:40:00,
2013-10-31 11:45:00,67.3,45.8,30.08,SW,236,2.0,5.0,46,0.00,,,0.00,Wunderground v.1.15,2013-10-31 18:45:00,
2013-10-31 11:50:00,67.0,45.5,30.08,SSE,158,3.0,3.0,46,0.00,,,0.00,Wunderground v.1.15,2013-10-31 18:50:00,
2013-10-31 12:00:00,68.1,45.4,30.08,SSW,193,2.0,2.0,44,0.00,,,0.00,Wunderground v.1.15,2013-10-31 19:00:00,
2013-10-31 12:05:00,68.6,45.8,30.08,ESE,117,2.0,2.0,44,0.00,,,0.00,Wunderground v.1.15,2013-10-31 19:05:00,
2013-10-31 12:15:00,68.9,44.9,30.08,South,173,2.0,2.0,42,0.00,,,0.00,Wunderground v.1.15,2013-10-31 19:15:00,
2013-10-31 12:20:00,69.2,45.7,30.08,SSW,210,2.0,2.0,43,0.00,,,0.00,Wunderground v.1.15,2013-10-31 19:20:00,
2013-10-31 12:25:00,69.7,45.6,30.08,SSW,210,2.0,2.0,42,0.00,,,0.00,Wunderground v.1.15,2013-10-31 19:25:00,
2013-10-31 12:30:00,69.4,45.3,30.08,East,98,3.0,3.0,42,0.00,,,0.00,Wunderground v.1.15,2013-10-31 19:30:00,
2013-10-31 12:35:00,69.4,45.3,30.07,SE,134,2.0,2.0,42,0.00,,,0.00,Wunderground v.1.15,2013-10-31 19:35:00,
2013-10-31 12:40:00,69.8,45.7,30.07,West,272,2.0,2.0,42,0.00,,,0.00,Wunderground v.1.15,2013-10-31 19:40:00,
2013-10-31 12:50:00,70.1,45.9,30.07,SSE,158,2.0,4.0,42,0.00,,,0.00,Wunderground v.1.15,2013-10-31 19:50:00,
2013-10-31 12:55:00,70.1,45.3,30.07,South,176,3.0,4.0,41,0.00,,,0.00,Wunderground v.1.15,2013-10-31 19:55:00,
2013-10-31 13:00:00,70.4,45.6,30.07,WSW,246,3.0,4.0,41,0.00,,,0.00,Wunderground v.1.15,2013-10-31 20:00:00,
2013-10-31 13:05:00,70.0,45.2,30.06,SE,143,3.0,4.0,41,0.00,,,0.00,Wunderground v.1.15,2013-10-31 20:05:00,
2013-10-31 13:11:00,70.0,45.2,30.06,South,173,3.0,3.0,41,0.00,,,0.00,Wunderground v.1.15,2013-10-31 20:11:00,
2013-10-31 13:20:00,70.8,45.3,30.06,SE,143,2.0,2.0,40,0.00,,,0.00,Wunderground v.1.15,2013-10-31 20:20:00,
2013-10-31 13:30:00,71.2,45.0,30.05,South,186,2.0,3.0,39,0.00,,,0.00,Wunderground v.1.15,2013-10-31 20:30:00,
2013-10-31 13:35:00,71.4,45.1,30.05,SW,214,2.0,3.0,39,0.00,,,0.00,Wunderground v.1.15,2013-10-31 20:35:00,
2013-10-31 13:40:00,71.6,45.3,30.04,WSW,241,2.0,4.0,39,0.00,,,0.00,Wunderground v.1.15,2013-10-31 20:40:00,
2013-10-31 13:46:00,71.2,45.0,30.04,SW,216,3.0,4.0,39,0.00,,,0.00,Wunderground v.1.15,2013-10-31 20:46:00,
2013-10-31 13:55:00,72.0,45.0,30.04,SW,215,2.0,4.0,38,0.00,,,0.00,Wunderground v.1.15,2013-10-31 20:55:00,
2013-10-31 14:00:00,71.6,45.3,30.03,SW,215,3.0,3.0,39,0.00,,,0.00,Wunderground v.1.15,2013-10-31 21:00:00,
2013-10-31 14:05:00,71.9,44.9,30.03,SSW,210,3.0,3.0,38,0.00,,,0.00,Wunderground v.1.15,2013-10-31 21:05:00,
2013-10-31 14:15:00,72.3,45.3,30.03,ESE,115,2.0,2.0,38,0.00,,,0.00,Wunderground v.1.15,2013-10-31 21:15:00,
2013-10-31 14:20:00,72.4,45.4,30.03,South,169,2.0,5.0,38,0.00,,,0.00,Wunderground v.1.15,2013-10-31 21:20:00,
2013-10-31 14:25:00,72.8,45.0,30.03,SSE,150,2.0,2.0,37,0.00,,,0.00,Wunderground v.1.15,2013-10-31 21:25:00,
2013-10-31 14:30:00,72.7,44.9,30.03,WSW,252,2.0,2.0,37,0.00,,,0.00,Wunderground v.1.15,2013-10-31 21:30:00,
2013-10-31 14:35:00,73.0,45.2,30.02,South,173,2.0,2.0,37,0.00,,,0.00,Wunderground v.1.15,2013-10-31 21:35:00,
2013-10-31 14:45:00,72.5,44.7,30.02,SW,231,3.0,3.0,37,0.00,,,0.00,Wunderground v.1.15,2013-10-31 21:45:00,
2013-10-31 14:50:00,72.5,45.4,30.02,SW,226,3.0,3.0,38,0.00,,,0.00,Wunderground v.1.15,2013-10-31 21:50:00,
2013-10-31 14:55:00,72.6,45.5,30.02,SSW,200,3.0,3.0,38,0.00,,,0.00,Wunderground v.1.15,2013-10-31 21:55:00,
2013-10-31 15:00:00,72.7,44.9,30.02,WSW,248,3.0,3.0,37,0.00,,,0.00,Wunderground v.1.15,2013-10-31 22:00:00,
2013-10-31 15:11:00,72.6,45.5,30.02,WSW,239,3.0,4.0,38,0.00,,,0.00,Wunderground v.1.15,2013-10-31 22:11:00,
2013-10-31 15:20:00,73.2,45.4,30.01,West,259,2.0,4.0,37,0.00,,,0.00,Wunderground v.1.15,2013-10-31 22:20:00,
2013-10-31 15:25:00,73.3,45.4,30.01,SSW,197,2.0,4.0,37,0.00,,,0.00,Wunderground v.1.15,2013-10-31 22:25:00,
2013-10-31 15:35:00,73.4,45.5,30.01,South,186,2.0,2.0,37,0.00,,,0.00,Wunderground v.1.15,2013-10-31 22:35:00,
2013-10-31 15:40:00,73.6,45.0,30.01,SW,231,2.0,2.0,36,0.00,,,0.00,Wunderground v.1.15,2013-10-31 22:40:00,
2013-10-31 15:45:00,73.5,44.9,30.01,SSE,151,2.0,2.0,36,0.00,,,0.00,Wunderground v.1.15,2013-10-31 22:45:00,
2013-10-31 15:51:00,73.4,45.5,30.01,South,171,2.0,2.0,37,0.00,,,0.00,Wunderground v.1.15,2013-10-31 22:51:00,
2013-10-31 16:00:00,73.0,45.2,30.01,SSE,159,2.0,2.0,37,0.00,,,0.00,Wunderground v.1.15,2013-10-31 23:00:00,
2013-10-31 16:05:00,73.6,45.0,30.01,South,181,1.0,2.0,36,0.00,,,0.00,Wunderground v.1.15,2013-10-31 23:05:00,
2013-10-31 16:16:00,73.9,45.3,30.00,SSW,205,2.0,2.0,36,0.00,,,0.00,Wunderground v.1.15,2013-10-31 23:16:00,
2013-10-31 16:25:00,73.9,45.3,30.00,SW,220,2.0,2.0,36,0.00,,,0.00,Wunderground v.1.15,2013-10-31 23:25:00,
2013-10-31 16:30:00,73.9,45.3,30.00,SW,228,2.0,2.0,36,0.00,,,0.00,Wunderground v.1.15,2013-10-31 23:30:00,
2013-10-31 16:35:00,74.0,45.3,30.00,South,171,2.0,2.0,36,0.00,,,0.00,Wunderground v.1.15,2013-10-31 23:35:00,
2013-10-31 16:40:00,73.7,45.1,30.00,SW,220,2.0,3.0,36,0.00,,,0.00,Wunderground v.1.15,2013-10-31 23:40:00,
2013-10-31 16:50:00,73.5,44.9,30.00,SW,233,2.0,2.0,36,0.00,,,0.00,Wunderground v.1.15,2013-10-31 23:50:00,
2013-10-31 16:55:00,73.5,45.6,30.00,SW,229,2.0,2.0,37,0.00,,,0.00,Wunderground v.1.15,2013-10-31 23:55:00,
2013-10-31 17:00:00,73.6,45.0,30.00,SW,228,2.0,2.0,36,0.00,,,0.00,Wunderground v.1.15,2013-11-01 00:00:00,
2013-10-31 17:05:00,73.6,45.0,30.00,WSW,248,1.0,2.0,36,0.00,,,0.00,Wunderground v.1.15,2013-11-01 00:05:00,
2013-10-31 17:15:00,73.1,45.3,30.00,WSW,251,1.0,1.0,37,0.00,,,0.00,Wunderground v.1.15,2013-11-01 00:15:00,
2013-10-31 17:20:00,73.1,45.3,30.00,SW,231,1.0,1.0,37,0.00,,,0.00,Wunderground v.1.15,2013-11-01 00:20:00,
2013-10-31 17:25:00,73.4,45.5,30.00,WSW,250,1.0,1.0,37,0.00,,,0.00,Wunderground v.1.15,2013-11-01 00:25:00,
2013-10-31 17:30:00,73.5,45.6,30.00,WSW,241,0.0,1.0,37,0.00,,,0.00,Wunderground v.1.15,2013-11-01 00:30:00,
2013-10-31 17:36:00,73.3,45.4,30.00,ESE,120,0.0,0.0,37,0.00,,,0.00,Wunderground v.1.15,2013-11-01 00:36:00,
2013-10-31 17:45:00,72.5,45.4,30.00,ESE,120,0.0,0.0,38,0.00,,,0.00,Wunderground v.1.15,2013-11-01 00:45:00,
2013-10-31 17:50:00,70.9,44.7,30.00,ESE,120,0.0,0.0,39,0.00,,,0.00,Wunderground v.1.15,2013-11-01 00:50:00,
2013-10-31 17:55:00,69.4,44.7,30.00,ESE,120,0.0,0.0,41,0.00,,,0.00,Wunderground v.1.15,2013-11-01 00:55:00,
2013-10-31 18:00:00,68.2,44.8,30.00,ESE,120,0.0,0.0,43,0.00,,,0.00,Wunderground v.1.15,2013-11-01 01:00:00,
2013-10-31 18:05:00,67.1,44.4,30.00,ESE,120,0.0,0.0,44,0.00,,,0.00,Wunderground v.1.15,2013-11-01 01:05:00,
2013-10-31 18:15:00,65.6,44.3,30.00,NE,50,0.0,0.0,46,0.00,,,0.00,Wunderground v.1.15,2013-11-01 01:15:00,
2013-10-31 18:20:00,64.9,44.7,30.00,NE,50,0.0,0.0,48,0.00,,,0.00,Wunderground v.1.15,2013-11-01 01:20:00,
2013-10-31 18:25:00,64.4,44.8,30.00,NE,45,0.0,0.0,49,0.00,,,0.00,Wunderground v.1.15,2013-11-01 01:25:00,
2013-10-31 18:30:00,63.9,44.4,30.00,NNE,18,0.0,0.0,49,0.00,,,0.00,Wunderground v.1.15,2013-11-01 01:30:00,
2013-10-31 18:36:00,63.3,44.3,30.01,NNE,18,0.0,0.0,50,0.00,,,0.00,Wunderground v.1.15,2013-11-01 01:36:00,
2013-10-31 18:45:00,62.5,44.1,30.01,NNE,18,0.0,0.0,51,0.00,,,0.00,Wunderground v.1.15,2013-11-01 01:45:00,
2013-10-31 18:50:00,62.2,44.3,30.01,NNE,18,0.0,0.0,52,0.00,,,0.00,Wunderground v.1.15,2013-11-01 01:50:00,
2013-10-31 18:55:00,61.7,43.9,30.01,NNE,18,0.0,0.0,52,0.00,,,0.00,Wunderground v.1.15,2013-11-01 01:55:00,
2013-10-31 19:00:00,61.3,44.0,30.01,NNE,18,0.0,0.0,53,0.00,,,0.00,Wunderground v.1.15,2013-11-01 02:00:00,
2013-10-31 19:05:00,61.0,44.2,30.02,NNE,18,0.0,0.0,54,0.00,,,0.00,Wunderground v.1.15,2013-11-01 02:05:00,
2013-10-31 19:10:00,60.8,44.0,30.02,North,3,0.0,0.0,54,0.00,,,0.00,Wunderground v.1.15,2013-11-01 02:10:00,
2013-10-31 19:20:00,59.8,44.1,30.02,North,3,0.0,0.0,56,0.00,,,0.00,Wunderground v.1.15,2013-11-01 02:20:00,
2013-10-31 19:25:00,59.3,43.6,30.02,North,4,0.0,0.0,56,0.00,,,0.00,Wunderground v.1.15,2013-11-01 02:25:00,
2013-10-31 19:35:00,58.7,44.0,30.02,North,4,0.0,1.0,58,0.00,,,0.00,Wunderground v.1.15,2013-11-01 02:35:00,
2013-10-31 19:40:00,58.6,43.9,30.02,North,3,0.0,0.0,58,0.00,,,0.00,Wunderground v.1.15,2013-11-01 02:40:00,
2013-10-31 19:45:00,58.2,43.9,30.02,NNW,339,0.0,0.0,59,0.00,,,0.00,Wunderground v.1.15,2013-11-01 02:45:00,
2013-10-31 19:50:00,57.8,44.0,30.02,NNW,339,0.0,0.0,60,0.00,,,0.00,Wunderground v.1.15,2013-11-01 02:50:00,
2013-10-31 19:55:00,57.3,44.0,30.02,NNW,339,0.0,0.0,61,0.00,,,0.00,Wunderground v.1.15,2013-11-01 02:55:00,
2013-10-31 20:00:00,56.7,44.7,30.02,NNW,339,0.0,0.0,64,0.00,,,0.00,Wunderground v.1.15,2013-11-01 03:00:00,
2013-10-31 20:11:00,56.3,43.4,30.02,NNW,340,0.0,1.0,62,0.00,,,0.00,Wunderground v.1.15,2013-11-01 03:11:00,
2013-10-31 20:20:00,56.3,43.4,30.02,NNW,340,0.0,0.0,62,0.00,,,0.00,Wunderground v.1.15,2013-11-01 03:20:00,
2013-10-31 20:25:00,56.2,43.3,30.02,NNW,340,0.0,0.0,62,0.00,,,0.00,Wunderground v.1.15,2013-11-01 03:25:00,
2013-10-31 20:31:00,56.0,43.2,30.02,NNW,340,0.0,0.0,62,0.00,,,0.00,Wunderground v.1.15,2013-11-01 03:31:00,
2013-10-31 20:40:00,55.7,42.9,30.02,NNW,340,0.0,0.0,62,0.00,,,0.00,Wunderground v.1.15,2013-11-01 03:40:00,
2013-10-31 20:45:00,55.4,43.0,30.02,NNW,340,0.0,0.0,63,0.00,,,0.00,Wunderground v.1.15,2013-11-01 03:45:00,
2013-10-31 20:50:00,55.4,43.0,30.02,NNW,340,0.0,0.0,63,0.00,,,0.00,Wunderground v.1.15,2013-11-01 03:50:00,
2013-10-31 20:55:00,55.0,43.4,30.02,NNW,340,0.0,0.0,65,0.00,,,0.00,Wunderground v.1.15,2013-11-01 03:55:00,
2013-10-31 21:00:00,54.6,42.7,30.02,NNW,340,0.0,0.0,64,0.00,,,0.00,Wunderground v.1.15,2013-11-01 04:00:00,
2013-10-31 21:05:00,54.5,43.4,30.02,NNW,340,0.0,0.0,66,0.00,,,0.00,Wunderground v.1.15,2013-11-01 04:05:00,
2013-10-31 21:10:00,54.6,42.7,30.03,NNW,340,0.0,0.0,64,0.00,,,0.00,Wunderground v.1.15,2013-11-01 04:10:00,
2013-10-31 21:15:00,54.4,42.9,30.03,NNW,340,0.0,0.0,65,0.00,,,0.00,Wunderground v.1.15,2013-11-01 04:15:00,
2013-10-31 21:20:00,54.2,42.7,30.02,NNW,340,0.0,0.0,65,0.00,,,0.00,Wunderground v.1.15,2013-11-01 04:20:00,
2013-10-31 21:25:00,53.9,42.8,30.02,NNW,340,0.0,0.0,66,0.00,,,0.00,Wunderground v.1.15,2013-11-01 04:25:00,
2013-10-31 21:30:00,53.8,42.7,30.02,NNW,340,0.0,0.0,66,0.00,,,0.00,Wunderground v.1.15,2013-11-01 04:30:00,
2013-10-31 21:35:00,53.4,42.7,30.03,NNW,340,0.0,0.0,67,0.00,,,0.00,Wunderground v.1.15,2013-11-01 04:35:00,
2013-10-31 21:41:00,53.1,42.8,30.03,NNW,340,0.0,0.0,68,0.00,,,0.00,Wunderground v.1.15,2013-11-01 04:41:00,
2013-10-31 21:50:00,52.8,42.9,30.03,NNW,339,0.0,0.0,69,0.00,,,0.00,Wunderground v.1.15,2013-11-01 04:50:00,
2013-10-31 21:55:00,52.9,43.0,30.03,NNW,339,0.0,0.0,69,0.00,,,0.00,Wunderground v.1.15,2013-11-01 04:55:00,
2013-10-31 22:00:00,52.7,42.8,30.03,NNW,339,0.0,0.0,69,0.00,,,0.00,Wunderground v.1.15,2013-11-01 05:00:00,
2013-10-31 22:05:00,52.4,42.5,30.03,NNE,33,0.0,0.0,69,0.00,,,0.00,Wunderground v.1.15,2013-11-01 05:05:00,
2013-10-31 22:15:00,52.1,42.6,30.03,NNE,33,0.0,0.0,70,0.00,,,0.00,Wunderground v.1.15,2013-11-01 05:15:00,
2013-10-31 22:20:00,52.0,42.5,30.03,North,7,0.0,0.0,70,0.00,,,0.00,Wunderground v.1.15,2013-11-01 05:20:00,
2013-10-31 22:25:00,51.9,42.4,30.04,North,7,0.0,0.0,70,0.00,,,0.00,Wunderground v.1.15,2013-11-01 05:25:00,
2013-10-31 22:30:00,51.9,42.8,30.04,North,8,0.0,0.0,71,0.00,,,0.00,Wunderground v.1.15,2013-11-01 05:30:00,
2013-10-31 22:35:00,52.1,42.6,30.04,North,7,0.0,1.0,70,0.00,,,0.00,Wunderground v.1.15,2013-11-01 05:35:00,
2013-10-31 22:41:00,52.5,42.6,30.04,East,91,0.0,0.0,69,0.00,,,0.00,Wunderground v.1.15,2013-11-01 05:41:00,
2013-10-31 22:50:00,52.5,43.0,30.04,East,93,0.0,0.0,70,0.00,,,0.00,Wunderground v.1.15,2013-11-01 05:50:00,
2013-10-31 22:55:00,52.5,43.0,30.04,NW,311,0.0,1.0,70,0.00,,,0.00,Wunderground v.1.15,2013-11-01 05:55:00,
2013-10-31 23:00:00,52.3,42.8,30.04,North,1,0.0,1.0,70,0.00,,,0.00,Wunderground v.1.15,2013-11-01 06:00:00,
2013-10-31 23:06:00,52.0,42.5,30.04,North,2,0.0,1.0,70,0.00,,,0.00,Wunderground v.1.15,2013-11-01 06:06:00,
2013-10-31 23:10:00,51.6,42.5,30.04,North,7,0.0,0.0,71,0.00,,,0.00,Wunderground v.1.15,2013-11-01 06:10:00,
2013-10-31 23:20:00,51.3,42.6,30.04,NNW,328,0.0,0.0,72,0.00,,,0.00,Wunderground v.1.15,2013-11-01 06:20:00,
2013-10-31 23:25:00,51.3,42.6,30.04,NNW,328,0.0,0.0,72,0.00,,,0.00,Wunderground v.1.15,2013-11-01 06:25:00,
2013-10-31 23:30:00,51.1,42.4,30.04,NNW,328,0.0,0.0,72,0.00,,,0.00,Wunderground v.1.15,2013-11-01 06:30:00,
2013-10-31 23:36:00,50.9,42.6,30.03,NNW,328,0.0,0.0,73,0.00,,,0.00,Wunderground v.1.15,2013-11-01 06:36:00,
2013-10-31 23:45:00,50.6,41.9,30.03,NNW,328,0.0,0.0,72,0.00,,,0.00,Wunderground v.1.15,2013-11-01 06:45:00,
2013-10-31 23:50:00,50.2,42.2,30.03,NNW,328,0.0,0.0,74,0.00,,,0.00,Wunderground v.1.15,2013-11-01 06:50:00,
2013-10-31 23:55:00,50.0,42.0,30.03,NNW,328,0.0,0.0,74,0.00,,,0.00,Wunderground v.1.15,2013-11-01 06:55:00,